C. Angelo — WCZ5866 — position and weather

sailwx.info

Track history (hours):
 
Tides and Currents Weather Stations Pressure Air Temp Water Temp Dewpoint Dewpoint Depression Visibility Wind Speed Wind Dir Waves Ship Positions

C. Angelo

Owner: G T 110 INC, NEW HAVEN, CT. More information available from US FCC via Universal Licensing System and Coast Guard Vessel Documentation Center.

Last reported at 2017-May-24 22:45 UTC. Time now 2017-May-25 14:22 UTC.
Position N 39°55' W 073°54'.

MMSI: 366988420.

Date/timePositionNaut miles runAvg speedWind from/ knotsBaromVisibWave heightAir tempDewpointWater temp
2017-May-24 22:45N 39°55' W 073°54'3 9.6
2017-May-24 22:30N 39°53' W 073°55'5 9.7
2017-May-24 22:00N 39°48' W 073°55'5 9.7
2017-May-24 21:30N 39°43' W 073°55'5 9.4
2017-May-24 21:00N 39°39' W 073°58'5 9.3
2017-May-24 20:30N 39°34' W 073°60'  
2017-May-17 13:30N 38°60' W 074°26'4 7.8
2017-May-17 12:57N 39°03' W 074°24'4 7.8
2017-May-17 12:28N 39°07' W 074°22'4 7.8
2017-May-17 12:00N 39°10' W 074°20'4 7.7
2017-May-17 11:30N 39°14' W 074°18'4 7.8
2017-May-17 11:00N 39°17' W 074°16'4 7.9
2017-May-17 10:30N 39°20' W 074°13'4 7.9
2017-May-17 10:00N 39°23' W 074°10'4 7.8
2017-May-17 09:30N 39°27' W 074°07'4 7.8
2017-May-17 09:00N 39°30' W 074°05'4 7.6
2017-May-17 08:30N 39°34' W 074°03'4 7.8
2017-May-17 08:00N 39°37' W 074°01'4 8.0
2017-May-17 07:30N 39°41' W 073°59'4 7.9
2017-May-17 07:00N 39°45' W 073°58'4 8.0
2017-May-17 06:30N 39°49' W 073°58'4 8.1
2017-May-17 06:00N 39°53' W 073°57'4 8.1
2017-May-17 05:29N 39°57' W 073°57'4 8.2
2017-May-17 05:00N 40°01' W 073°57'4 7.9
2017-May-17 04:29N 40°05' W 073°56'4 7.9
2017-May-17 03:57N 40°09' W 073°56'4 7.6
2017-May-17 03:29N 40°13' W 073°56'15 7.5
2017-May-17 01:28N 40°28' W 073°54'3 5.9
2017-May-17 01:00N 40°30' W 073°57'3 6.8
2017-May-17 00:30N 40°32' W 074°01'4 7.9
2017-May-17 00:00N 40°35' W 074°02'2 3.5
2017-May-16 23:30N 40°37' W 074°03'4 7.7
2017-May-16 23:00N 40°41' W 074°02'4 8.1
2017-May-16 22:30N 40°44' W 073°58'4 8.6
2017-May-16 21:59N 40°47' W 073°55'4 7.5
2017-May-16 21:29N 40°48' W 073°50'3 5.9
2017-May-16 21:00N 40°50' W 073°47'4 7.3
2017-May-16 20:30N 40°53' W 073°44'1 0.1
2017-May-16 08:49N 40°53' W 073°43'310.8
2017-May-16 08:30N 40°51' W 073°46'3 6.4
2017-May-16 07:58N 40°48' W 073°49'3 7.1
2017-May-16 07:30N 40°48' W 073°53'4 7.3
2017-May-16 07:00N 40°46' W 073°57'4 9.1
2017-May-16 06:30N 40°42' W 074°00'5 9.6
2017-May-16 06:00N 40°39' W 074°05'4 7.4
2017-May-16 05:30N 40°39' W 074°10'0 0.0
2017-May-16 05:00N 40°39' W 074°10'0 0.0
2017-May-16 04:30N 40°39' W 074°10'0 0.0
2017-May-16 04:00N 40°39' W 074°10'0 0.0
2017-May-16 03:30N 40°39' W 074°10'0 0.0
2017-May-16 03:00N 40°39' W 074°10'1 1.3
2017-May-16 02:30N 40°39' W 074°11'1 1.7
2017-May-16 02:00N 40°38' W 074°12'0 0.0
2017-May-16 01:30N 40°38' W 074°12'0 0.0
2017-May-16 01:00N 40°38' W 074°12'0 0.0
2017-May-16 00:30N 40°38' W 074°12'0 0.0
2017-May-16 00:00N 40°38' W 074°12'0 0.0
2017-May-15 23:30N 40°38' W 074°12'0 0.0
2017-May-15 23:00N 40°38' W 074°12'0 0.0
2017-May-15 22:30N 40°38' W 074°12'0 0.0
2017-May-15 22:00N 40°38' W 074°12'0 0.0
2017-May-15 21:30N 40°38' W 074°12'0 0.0
2017-May-15 21:00N 40°38' W 074°12'0 0.0
2017-May-15 20:30N 40°38' W 074°12'0 0.0
2017-May-15 20:00N 40°38' W 074°12'0 0.0
2017-May-15 19:30N 40°38' W 074°12'0 0.0
2017-May-15 19:00N 40°38' W 074°12'0 0.0
2017-May-15 18:30N 40°38' W 074°12'0 0.9
2017-May-15 18:00N 40°39' W 074°11'4 8.4
2017-May-15 17:31N 40°39' W 074°06'510.8
2017-May-15 17:00N 40°42' W 074°00'1 2.6
2017-May-15 16:30N 40°42' W 073°58'0 0.0
2017-May-15 16:00N 40°42' W 073°58'0 0.0
2017-May-15 15:30N 40°42' W 073°58'0 0.0
2017-May-15 15:00N 40°42' W 073°58'1 1.0
2017-May-15 14:00N 40°43' W 073°58'1 2.2
2017-May-15 13:30N 40°42' W 073°59'0 0.0
2017-May-15 13:00N 40°42' W 073°59'0 0.0
2017-May-15 12:30N 40°42' W 073°59'0 0.0
2017-May-15 12:00N 40°42' W 073°59'0 0.0
2017-May-15 11:30N 40°42' W 073°59'0 0.0
2017-May-15 11:00N 40°42' W 073°59'0 0.0
2017-May-15 10:30N 40°42' W 073°59'0 0.0
2017-May-15 10:00N 40°42' W 073°59'0 0.0
2017-May-15 09:30N 40°42' W 073°59'0 0.0
2017-May-15 09:00N 40°42' W 073°59'0 0.0
2017-May-15 08:30N 40°42' W 073°59'0 0.0
2017-May-15 08:00N 40°42' W 073°59'0 0.0
2017-May-15 07:30N 40°42' W 073°59'0 0.0
2017-May-15 07:00N 40°42' W 073°59'0 0.0
2017-May-15 06:30N 40°42' W 073°59'0 0.0
2017-May-15 06:00N 40°42' W 073°59'0 0.0
2017-May-15 05:30N 40°42' W 073°59'0 0.0
2017-May-15 05:00N 40°42' W 073°59'0 0.0
2017-May-15 04:30N 40°42' W 073°59'0 0.0
2017-May-15 04:00N 40°42' W 073°59'0 0.0
2017-May-15 03:30N 40°42' W 073°59'0 0.0
2017-May-15 03:00N 40°42' W 073°59'0 0.0
2017-May-15 02:30N 40°42' W 073°59'0 0.0
2017-May-15 02:00N 40°42' W 073°59'0 0.0
2017-May-15 01:30N 40°42' W 073°59'0 0.0
2017-May-15 01:01N 40°42' W 073°59'0 0.0
2017-May-15 00:30N 40°42' W 073°59'0 0.0
2017-May-15 00:00N 40°42' W 073°59'0 0.0
2017-May-14 23:30N 40°42' W 073°59'0 0.0
2017-May-14 23:00N 40°42' W 073°59'  
Track history (hours):
 
Tides and Currents Weather Stations Pressure Air Temp Water Temp Dewpoint Dewpoint Depression Visibility Wind Speed Wind Dir Waves Ship Positions

C. Angelo

Owner: G T 110 INC, NEW HAVEN, CT. More information available from US FCC via Universal Licensing System and Coast Guard Vessel Documentation Center.

Last reported at 2017-May-24 22:45 UTC. Time now 2017-May-25 14:22 UTC.
Position N 39°55' W 073°54'.

MMSI: 366988420.

Date/timePositionNaut miles runAvg speedWind from/ knotsBaromVisibWave heightAir tempDewpointWater temp
2017-May-24 22:45N 39°55' W 073°54'3 9.6
2017-May-24 22:30N 39°53' W 073°55'5 9.7
2017-May-24 22:00N 39°48' W 073°55'5 9.7
2017-May-24 21:30N 39°43' W 073°55'5 9.4
2017-May-24 21:00N 39°39' W 073°58'5 9.3
2017-May-24 20:30N 39°34' W 073°60'  
2017-May-17 13:30N 38°60' W 074°26'4 7.8
2017-May-17 12:57N 39°03' W 074°24'4 7.8
2017-May-17 12:28N 39°07' W 074°22'4 7.8
2017-May-17 12:00N 39°10' W 074°20'4 7.7
2017-May-17 11:30N 39°14' W 074°18'4 7.8
2017-May-17 11:00N 39°17' W 074°16'4 7.9
2017-May-17 10:30N 39°20' W 074°13'4 7.9
2017-May-17 10:00N 39°23' W 074°10'4 7.8
2017-May-17 09:30N 39°27' W 074°07'4 7.8
2017-May-17 09:00N 39°30' W 074°05'4 7.6
2017-May-17 08:30N 39°34' W 074°03'4 7.8
2017-May-17 08:00N 39°37' W 074°01'4 8.0
2017-May-17 07:30N 39°41' W 073°59'4 7.9
2017-May-17 07:00N 39°45' W 073°58'4 8.0
2017-May-17 06:30N 39°49' W 073°58'4 8.1
2017-May-17 06:00N 39°53' W 073°57'4 8.1
2017-May-17 05:29N 39°57' W 073°57'4 8.2
2017-May-17 05:00N 40°01' W 073°57'4 7.9
2017-May-17 04:29N 40°05' W 073°56'4 7.9
2017-May-17 03:57N 40°09' W 073°56'4 7.6
2017-May-17 03:29N 40°13' W 073°56'15 7.5
2017-May-17 01:28N 40°28' W 073°54'3 5.9
2017-May-17 01:00N 40°30' W 073°57'3 6.8
2017-May-17 00:30N 40°32' W 074°01'4 7.9
2017-May-17 00:00N 40°35' W 074°02'2 3.5
2017-May-16 23:30N 40°37' W 074°03'4 7.7
2017-May-16 23:00N 40°41' W 074°02'4 8.1
2017-May-16 22:30N 40°44' W 073°58'4 8.6
2017-May-16 21:59N 40°47' W 073°55'4 7.5
2017-May-16 21:29N 40°48' W 073°50'3 5.9
2017-May-16 21:00N 40°50' W 073°47'4 7.3
2017-May-16 20:30N 40°53' W 073°44'1 0.1
2017-May-16 08:49N 40°53' W 073°43'310.8
2017-May-16 08:30N 40°51' W 073°46'3 6.4
2017-May-16 07:58N 40°48' W 073°49'3 7.1
2017-May-16 07:30N 40°48' W 073°53'4 7.3
2017-May-16 07:00N 40°46' W 073°57'4 9.1
2017-May-16 06:30N 40°42' W 074°00'5 9.6
2017-May-16 06:00N 40°39' W 074°05'4 7.4
2017-May-16 05:30N 40°39' W 074°10'0 0.0
2017-May-16 05:00N 40°39' W 074°10'0 0.0
2017-May-16 04:30N 40°39' W 074°10'0 0.0
2017-May-16 04:00N 40°39' W 074°10'0 0.0
2017-May-16 03:30N 40°39' W 074°10'0 0.0
2017-May-16 03:00N 40°39' W 074°10'1 1.3
2017-May-16 02:30N 40°39' W 074°11'1 1.7
2017-May-16 02:00N 40°38' W 074°12'0 0.0
2017-May-16 01:30N 40°38' W 074°12'0 0.0
2017-May-16 01:00N 40°38' W 074°12'0 0.0
2017-May-16 00:30N 40°38' W 074°12'0 0.0
2017-May-16 00:00N 40°38' W 074°12'0 0.0
2017-May-15 23:30N 40°38' W 074°12'0 0.0
2017-May-15 23:00N 40°38' W 074°12'0 0.0
2017-May-15 22:30N 40°38' W 074°12'0 0.0
2017-May-15 22:00N 40°38' W 074°12'0 0.0
2017-May-15 21:30N 40°38' W 074°12'0 0.0
2017-May-15 21:00N 40°38' W 074°12'0 0.0
2017-May-15 20:30N 40°38' W 074°12'0 0.0
2017-May-15 20:00N 40°38' W 074°12'0 0.0
2017-May-15 19:30N 40°38' W 074°12'0 0.0
2017-May-15 19:00N 40°38' W 074°12'0 0.0
2017-May-15 18:30N 40°38' W 074°12'0 0.9
2017-May-15 18:00N 40°39' W 074°11'4 8.4
2017-May-15 17:31N 40°39' W 074°06'510.8
2017-May-15 17:00N 40°42' W 074°00'1 2.6
2017-May-15 16:30N 40°42' W 073°58'0 0.0
2017-May-15 16:00N 40°42' W 073°58'0 0.0
2017-May-15 15:30N 40°42' W 073°58'0 0.0
2017-May-15 15:00N 40°42' W 073°58'1 1.0
2017-May-15 14:00N 40°43' W 073°58'1 2.2
2017-May-15 13:30N 40°42' W 073°59'0 0.0
2017-May-15 13:00N 40°42' W 073°59'0 0.0
2017-May-15 12:30N 40°42' W 073°59'0 0.0
2017-May-15 12:00N 40°42' W 073°59'0 0.0
2017-May-15 11:30N 40°42' W 073°59'0 0.0
2017-May-15 11:00N 40°42' W 073°59'0 0.0
2017-May-15 10:30N 40°42' W 073°59'0 0.0
2017-May-15 10:00N 40°42' W 073°59'0 0.0
2017-May-15 09:30N 40°42' W 073°59'0 0.0
2017-May-15 09:00N 40°42' W 073°59'0 0.0
2017-May-15 08:30N 40°42' W 073°59'0 0.0
2017-May-15 08:00N 40°42' W 073°59'0 0.0
2017-May-15 07:30N 40°42' W 073°59'0 0.0
2017-May-15 07:00N 40°42' W 073°59'0 0.0
2017-May-15 06:30N 40°42' W 073°59'0 0.0
2017-May-15 06:00N 40°42' W 073°59'0 0.0
2017-May-15 05:30N 40°42' W 073°59'0 0.0
2017-May-15 05:00N 40°42' W 073°59'0 0.0
2017-May-15 04:30N 40°42' W 073°59'0 0.0
2017-May-15 04:00N 40°42' W 073°59'0 0.0
2017-May-15 03:30N 40°42' W 073°59'0 0.0
2017-May-15 03:00N 40°42' W 073°59'0 0.0
2017-May-15 02:30N 40°42' W 073°59'0 0.0
2017-May-15 02:00N 40°42' W 073°59'0 0.0
2017-May-15 01:30N 40°42' W 073°59'0 0.0
2017-May-15 01:01N 40°42' W 073°59'0 0.0
2017-May-15 00:30N 40°42' W 073°59'0 0.0
2017-May-15 00:00N 40°42' W 073°59'0 0.0
2017-May-14 23:30N 40°42' W 073°59'0 0.0
2017-May-14 23:00N 40°42' W 073°59'  

Dump ship's entire track history